createdAt,value
2023-03-25T00:00:18.952Z,84.96
2023-03-25T00:03:09.340Z,85.36
2023-03-25T00:05:40.068Z,85.48
2023-03-25T00:08:07.372Z,85.61
2023-03-25T00:10:34.959Z,85.37
2023-03-25T00:13:05.560Z,85.59
2023-03-25T00:15:34.091Z,86.32
2023-03-25T00:18:02.259Z,86.85
2023-03-25T00:20:29.937Z,86.64
2023-03-25T00:22:57.168Z,86.70
2023-03-25T00:25:24.776Z,87.19
2023-03-25T00:27:52.074Z,87.34
2023-03-25T00:30:21.244Z,87.33
2023-03-25T00:32:53.136Z,87.14
2023-03-25T00:35:24.213Z,86.95
2023-03-25T00:37:57.625Z,87.24
2023-03-25T00:40:35.632Z,87.31
2023-03-25T00:43:05.051Z,87.81
2023-03-25T00:45:34.219Z,87.30
2023-03-25T00:48:03.212Z,87.93
2023-03-25T00:50:31.572Z,87.22
2023-03-25T00:52:58.827Z,87.76
2023-03-25T00:55:26.491Z,87.92
2023-03-25T00:57:53.739Z,88.25
2023-03-25T01:00:21.345Z,88.57
2023-03-25T01:02:54.089Z,87.67
2023-03-25T01:05:22.006Z,88.79
2023-03-25T01:07:49.636Z,88.96
2023-03-25T01:10:17.970Z,89.15
2023-03-25T01:12:45.344Z,89.77
2023-03-25T01:15:13.211Z,89.39
2023-03-25T01:17:41.280Z,90.10
2023-03-25T01:20:10.113Z,89.89
2023-03-25T01:22:38.478Z,89.44
2023-03-25T01:25:06.764Z,90.41
2023-03-25T01:27:34.180Z,90.35
2023-03-25T01:30:01.904Z,89.93
2023-03-25T01:32:29.939Z,89.94
2023-03-25T01:34:57.523Z,89.19
2023-03-25T01:37:25.786Z,88.82
2023-03-25T01:39:53.678Z,88.76
2023-03-25T01:42:21.190Z,87.67
2023-03-25T01:44:49.428Z,85.81
2023-03-25T01:47:18.408Z,84.99
2023-03-25T01:49:47.186Z,83.82
2023-03-25T01:52:24.157Z,82.08
2023-03-25T01:54:55.301Z,80.11
2023-03-25T01:57:24.500Z,79.29
2023-03-25T01:59:54.504Z,79.51
2023-03-25T02:02:25.289Z,78.90
2023-03-25T02:05:10.949Z,78.74
2023-03-25T02:07:43.103Z,78.81
2023-03-25T02:10:12.572Z,79.18
2023-03-25T02:12:42.897Z,78.71
2023-03-25T02:15:12.540Z,78.17
2023-03-25T02:18:07.014Z,78.00
2023-03-25T02:21:11.380Z,77.50
2023-03-25T02:25:02.092Z,77.09
2023-03-25T02:27:45.978Z,77.03
2023-03-25T02:30:28.119Z,77.11
2023-03-25T02:33:32.469Z,77.50
2023-03-25T02:36:12.010Z,76.94
2023-03-25T02:39:01.422Z,76.68
2023-03-25T02:42:07.865Z,76.55
2023-03-25T02:44:56.834Z,76.55
2023-03-25T02:47:31.906Z,76.46
2023-03-25T02:50:17.985Z,76.32
2023-03-25T02:52:57.725Z,76.88
2023-03-25T02:55:30.693Z,77.23
2023-03-25T02:58:04.089Z,77.46
2023-03-25T03:00:32.871Z,77.78
2023-03-25T03:03:06.941Z,77.76
2023-03-25T03:05:44.111Z,77.53
2023-03-25T03:08:20.319Z,77.54
2023-03-25T03:11:31.794Z,76.89
2023-03-25T03:14:48.333Z,77.31
2023-03-25T03:17:43.055Z,77.47
2023-03-25T03:20:44.330Z,77.39
2023-03-25T03:23:37.144Z,78.10
2023-03-25T03:27:17.472Z,77.78
2023-03-25T03:29:54.253Z,77.63
2023-03-25T03:32:48.424Z,77.57
2023-03-25T03:35:35.074Z,77.96
2023-03-25T03:38:11.522Z,77.80
2023-03-25T03:40:45.799Z,77.38
2023-03-25T03:43:36.416Z,77.40
2023-03-25T03:46:15.735Z,77.36
2023-03-25T03:48:50.405Z,77.40
2023-03-25T03:51:46.914Z,77.66
2023-03-25T03:54:26.442Z,77.58
2023-03-25T03:57:02.754Z,77.38
2023-03-25T03:59:46.726Z,77.20
2023-03-25T04:02:32.720Z,77.05
2023-03-25T04:05:00.982Z,77.23
2023-03-25T04:08:21.533Z,76.96
2023-03-25T04:11:12.368Z,77.08
2023-03-25T04:13:47.305Z,77.06
2023-03-25T04:16:14.853Z,77.06
2023-03-25T04:18:43.686Z,77.21
2023-03-25T04:21:15.343Z,77.12
2023-03-25T04:23:42.931Z,76.99
2023-03-25T04:26:10.198Z,76.85
2023-03-25T04:28:37.801Z,77.50
2023-03-25T04:31:09.779Z,77.39
2023-03-25T04:33:37.433Z,77.56
2023-03-25T04:36:06.910Z,77.54
2023-03-25T04:38:37.811Z,77.66
2023-03-25T04:41:07.017Z,77.93
2023-03-25T04:43:34.640Z,77.83
2023-03-25T04:46:02.652Z,77.89
2023-03-25T04:48:33.973Z,77.29
2023-03-25T04:51:03.536Z,77.13
2023-03-25T04:53:31.324Z,76.98
2023-03-25T04:55:59.046Z,77.50
2023-03-25T04:58:26.781Z,77.79
2023-03-25T05:00:54.145Z,77.47
2023-03-25T05:03:24.610Z,77.04
2023-03-25T05:05:53.618Z,77.16
2023-03-25T05:08:24.283Z,77.13
2023-03-25T05:10:52.645Z,77.51
2023-03-25T05:13:21.055Z,77.73
2023-03-25T05:15:48.414Z,77.51
2023-03-25T05:18:17.482Z,77.67
2023-03-25T05:20:47.147Z,77.30
2023-03-25T05:23:18.346Z,77.28
2023-03-25T05:25:56.581Z,77.45
2023-03-25T05:28:25.728Z,76.70
2023-03-25T05:30:55.558Z,76.82
2023-03-25T05:33:24.765Z,76.88
2023-03-25T05:35:52.404Z,76.63
2023-03-25T05:38:20.191Z,75.92
2023-03-25T05:40:48.986Z,75.80
2023-03-25T05:43:17.645Z,75.49
2023-03-25T05:45:45.541Z,75.18
2023-03-25T05:48:13.154Z,75.26
2023-03-25T05:50:43.571Z,75.50
2023-03-25T05:53:18.346Z,75.47
2023-03-25T05:55:47.716Z,75.30
2023-03-25T05:58:17.594Z,75.16
2023-03-25T06:00:47.080Z,74.84
2023-03-25T06:03:15.485Z,74.54
2023-03-25T06:05:42.853Z,74.21
2023-03-25T06:08:11.351Z,73.76
2023-03-25T06:10:39.431Z,73.54
2023-03-25T06:13:07.050Z,72.99
2023-03-25T06:15:39.134Z,72.32
2023-03-25T06:18:07.465Z,72.33
2023-03-25T06:20:34.788Z,71.92
2023-03-25T06:23:02.432Z,71.89
2023-03-25T06:25:31.184Z,71.58
2023-03-25T06:28:03.341Z,71.24
2023-03-25T06:30:30.898Z,70.03
2023-03-25T06:33:03.079Z,69.00
2023-03-25T06:35:30.594Z,67.88
2023-03-25T06:37:58.188Z,67.17
2023-03-25T06:40:26.001Z,66.94
2023-03-25T06:42:53.549Z,67.01
2023-03-25T06:45:21.080Z,66.82
2023-03-25T06:47:48.705Z,66.31
2023-03-25T06:50:16.339Z,65.58
2023-03-25T06:52:43.909Z,64.48
2023-03-25T06:55:11.299Z,63.78
2023-03-25T06:57:38.973Z,63.24
2023-03-25T07:00:09.640Z,64.20
2023-03-25T07:02:37.234Z,66.06
2023-03-25T07:05:06.024Z,65.53
2023-03-25T07:07:33.657Z,65.67
2023-03-25T07:10:01.344Z,66.58
2023-03-25T07:12:29.000Z,68.79
2023-03-25T07:14:57.672Z,67.21
2023-03-25T07:17:25.451Z,67.93
2023-03-25T07:19:52.824Z,67.35
2023-03-25T07:22:20.327Z,64.30
2023-03-25T07:24:47.704Z,61.65
2023-03-25T07:27:16.060Z,59.86
2023-03-25T07:29:43.392Z,56.61
2023-03-25T07:32:11.008Z,48.29
2023-03-25T07:34:38.386Z,43.06
2023-03-25T07:37:06.012Z,37.90
2023-03-25T07:39:33.339Z,38.10
2023-03-25T07:42:01.311Z,36.32
2023-03-25T07:44:28.662Z,36.24
2023-03-25T07:46:56.233Z,39.48
2023-03-25T07:49:23.679Z,40.58
2023-03-25T07:51:51.280Z,39.83
2023-03-25T07:54:20.765Z,39.59
2023-03-25T07:56:48.510Z,40.84
2023-03-25T07:59:15.981Z,42.04
2023-03-25T08:01:43.639Z,42.97
2023-03-25T08:04:13.213Z,44.29
2023-03-25T08:06:41.408Z,43.53
2023-03-25T08:09:09.039Z,40.13
2023-03-25T08:11:36.630Z,34.50
2023-03-25T08:14:03.938Z,29.60
2023-03-25T08:16:31.579Z,25.58
2023-03-25T08:18:58.867Z,25.87
2023-03-25T08:21:27.467Z,28.39
2023-03-25T08:24:02.304Z,26.53
2023-03-25T08:26:33.890Z,23.32
2023-03-25T08:29:02.944Z,24.20
2023-03-25T08:31:33.173Z,23.17
2023-03-25T08:34:01.956Z,21.75
2023-03-25T08:36:29.623Z,22.44
2023-03-25T08:38:56.905Z,24.26
2023-03-25T08:41:25.523Z,26.05
2023-03-25T08:44:11.783Z,27.48
2023-03-25T08:46:39.529Z,29.73
2023-03-25T08:49:06.830Z,30.39
2023-03-25T08:51:34.462Z,29.05
2023-03-25T08:54:01.830Z,28.18
2023-03-25T08:56:31.191Z,27.23
2023-03-25T08:58:58.483Z,26.58
2023-03-25T09:01:26.110Z,26.00
2023-03-25T09:03:55.512Z,24.31
2023-03-25T09:06:23.267Z,25.04
2023-03-25T09:08:50.647Z,25.77
2023-03-25T09:11:27.245Z,26.58
2023-03-25T09:14:05.000Z,26.57
2023-03-25T09:16:34.549Z,26.44
2023-03-25T09:19:03.688Z,23.57
2023-03-25T09:21:31.537Z,20.58
2023-03-25T09:23:58.872Z,18.09
2023-03-25T09:26:26.547Z,15.55
2023-03-25T09:28:55.753Z,14.14
2023-03-25T09:31:24.432Z,13.83
2023-03-25T09:33:51.728Z,12.26
2023-03-25T09:36:19.575Z,16.78
2023-03-25T09:38:47.129Z,17.57
2023-03-25T09:41:41.681Z,16.47
2023-03-25T09:44:20.874Z,13.04
2023-03-25T09:46:49.744Z,15.86
2023-03-25T09:49:23.756Z,14.87
2023-03-25T09:51:54.901Z,17.01
2023-03-25T09:54:34.460Z,14.33
2023-03-25T09:57:09.005Z,15.74
2023-03-25T09:59:49.329Z,19.78
2023-03-25T10:02:52.425Z,23.26
2023-03-25T10:05:47.395Z,23.48
2023-03-25T10:08:33.119Z,22.14
2023-03-25T10:11:29.950Z,17.65
2023-03-25T10:14:18.136Z,21.61
2023-03-25T10:17:42.091Z,25.38
2023-03-25T10:20:41.858Z,30.95
2023-03-25T10:23:17.292Z,34.42
2023-03-25T10:25:49.403Z,36.74
2023-03-25T10:28:27.489Z,39.41
2023-03-25T10:30:56.547Z,40.36
2023-03-25T10:33:44.080Z,41.67
2023-03-25T10:36:19.285Z,42.61
2023-03-25T10:38:54.541Z,40.10
2023-03-25T10:41:31.046Z,25.15
2023-03-25T10:43:58.374Z,18.12
2023-03-25T10:46:50.277Z,13.09
2023-03-25T10:49:23.974Z,11.52
2023-03-25T10:51:57.651Z,11.65
2023-03-25T10:54:36.661Z,14.25
2023-03-25T10:57:09.628Z,12.55
2023-03-25T11:00:00.921Z,14.58
2023-03-25T11:02:32.417Z,16.59
2023-03-25T11:05:07.629Z,15.15
2023-03-25T11:07:49.615Z,12.38
2023-03-25T11:10:26.586Z,15.21
2023-03-25T11:12:58.472Z,18.72
2023-03-25T11:15:33.164Z,22.19
2023-03-25T11:18:08.290Z,21.29
2023-03-25T11:20:46.228Z,22.36
2023-03-25T11:23:51.529Z,15.98
2023-03-25T11:26:36.704Z,13.31
2023-03-25T11:29:16.998Z,16.67
2023-03-25T11:31:44.477Z,20.02
2023-03-25T11:34:13.013Z,18.43
2023-03-25T11:37:01.952Z,19.09
2023-03-25T11:39:42.522Z,21.15
2023-03-25T11:42:17.089Z,22.44
2023-03-25T11:44:59.576Z,23.60
2023-03-25T11:47:36.729Z,23.14
2023-03-25T11:50:07.088Z,23.44
2023-03-25T11:52:45.854Z,21.68
2023-03-25T11:55:45.779Z,20.28
2023-03-25T11:58:22.011Z,23.03
2023-03-25T12:00:53.741Z,17.23
2023-03-25T12:03:27.606Z,21.20
2023-03-25T12:06:07.515Z,22.84
2023-03-25T12:09:00.708Z,25.51
2023-03-25T12:12:23.121Z,26.70
2023-03-25T12:15:30.043Z,28.38
2023-03-25T12:18:18.533Z,30.13
2023-03-25T12:21:14.019Z,32.18
2023-03-25T12:23:56.814Z,34.24
2023-03-25T12:26:47.664Z,35.91
2023-03-25T12:29:39.339Z,38.83
2023-03-25T12:32:09.686Z,41.48
2023-03-25T12:35:06.392Z,42.97
2023-03-25T12:37:54.705Z,45.62
2023-03-25T12:40:56.082Z,44.45
2023-03-25T12:43:54.298Z,35.55
2023-03-25T12:46:53.260Z,26.80
2023-03-25T12:49:41.527Z,22.22
2023-03-25T12:52:43.846Z,25.70
2023-03-25T12:55:58.809Z,28.51
2023-03-25T12:58:59.897Z,23.06
2023-03-25T13:01:42.485Z,25.90
2023-03-25T13:05:00.270Z,30.97
2023-03-25T13:07:46.585Z,33.27
2023-03-25T13:10:23.078Z,35.49
2023-03-25T13:12:54.124Z,36.50
2023-03-25T13:16:15.272Z,33.31
2023-03-25T13:18:50.325Z,28.88
2023-03-25T13:21:39.366Z,22.39
2023-03-25T13:24:17.658Z,20.06
2023-03-25T13:26:48.381Z,19.13
2023-03-25T13:29:59.297Z,17.71
2023-03-25T13:32:50.638Z,16.79
2023-03-25T13:35:27.237Z,15.75
2023-03-25T13:38:01.418Z,16.83
2023-03-25T13:40:40.871Z,18.98
2023-03-25T13:43:32.641Z,21.28
2023-03-25T13:46:10.618Z,20.67
2023-03-25T13:48:46.829Z,20.46
2023-03-25T13:51:14.219Z,20.94
2023-03-25T13:54:02.540Z,23.33
2023-03-25T13:56:57.474Z,21.52
2023-03-25T14:00:06.257Z,22.52
2023-03-25T14:03:03.240Z,25.03
2023-03-25T14:06:21.913Z,28.41
2023-03-25T14:09:23.111Z,30.59
2023-03-25T14:12:08.392Z,31.88
2023-03-25T14:14:47.864Z,34.00
2023-03-25T14:17:19.269Z,35.22
2023-03-25T14:19:58.403Z,37.05
2023-03-25T14:22:32.672Z,37.71
2023-03-25T14:25:01.259Z,38.62
2023-03-25T14:27:35.388Z,38.63
2023-03-25T14:30:25.107Z,37.06
2023-03-25T14:32:56.678Z,36.31
2023-03-25T14:35:48.002Z,35.95
2023-03-25T14:38:15.834Z,35.97
2023-03-25T14:41:03.693Z,35.87
2023-03-25T14:43:46.809Z,36.15
2023-03-25T14:46:19.282Z,36.26
2023-03-25T14:49:04.140Z,36.31
2023-03-25T14:51:31.543Z,35.26
2023-03-25T14:54:34.042Z,34.69
2023-03-25T14:57:17.877Z,34.51
2023-03-25T14:59:58.696Z,35.19
2023-03-25T15:02:34.163Z,35.47
2023-03-25T15:05:25.082Z,36.33
2023-03-25T15:08:12.006Z,35.82
2023-03-25T15:10:44.046Z,36.07
2023-03-25T15:13:29.986Z,36.39
2023-03-25T15:16:06.592Z,36.71
2023-03-25T15:18:39.589Z,36.81
2023-03-25T15:21:54.491Z,37.95
2023-03-25T15:24:47.338Z,39.36
2023-03-25T15:28:11.238Z,40.79
2023-03-25T15:31:21.222Z,41.01
2023-03-25T15:34:18.922Z,42.56
2023-03-25T15:36:59.074Z,43.16
2023-03-25T15:39:55.425Z,43.80
2023-03-25T15:42:59.564Z,45.15
2023-03-25T15:46:06.208Z,46.73
2023-03-25T15:48:58.477Z,46.36
2023-03-25T15:52:13.153Z,47.47
2023-03-25T15:54:55.161Z,47.15
2023-03-25T15:57:37.812Z,48.10
2023-03-25T16:00:16.073Z,48.74
2023-03-25T16:03:01.350Z,49.06
2023-03-25T16:05:47.635Z,49.72
2023-03-25T16:08:28.617Z,49.96
2023-03-25T16:10:57.005Z,49.77
2023-03-25T16:13:24.712Z,49.75
2023-03-25T16:15:57.161Z,50.30
2023-03-25T16:18:26.899Z,50.38
2023-03-25T16:21:03.053Z,49.97
2023-03-25T16:23:31.799Z,49.76
2023-03-25T16:25:59.256Z,50.20
2023-03-25T16:28:42.651Z,50.25
2023-03-25T16:31:34.959Z,51.77
2023-03-25T16:34:02.899Z,52.16
2023-03-25T16:36:30.918Z,52.32
2023-03-25T16:38:58.729Z,52.24
2023-03-25T16:41:26.243Z,53.03
2023-03-25T16:43:55.109Z,53.10
2023-03-25T16:46:23.885Z,53.37
2023-03-25T16:48:54.896Z,53.46
2023-03-25T16:51:36.980Z,53.88
2023-03-25T16:54:36.389Z,54.08
2023-03-25T16:57:08.261Z,53.92
2023-03-25T16:59:38.241Z,53.79
2023-03-25T17:02:27.536Z,54.82
2023-03-25T17:05:19.011Z,55.11
2023-03-25T17:07:55.659Z,54.37
2023-03-25T17:10:32.856Z,55.06
2023-03-25T17:13:10.120Z,55.10
2023-03-25T17:15:38.996Z,54.99
2023-03-25T17:18:16.623Z,54.70
2023-03-25T17:20:49.206Z,54.83
2023-03-25T17:23:45.853Z,55.26
2023-03-25T17:26:20.147Z,55.71
2023-03-25T17:28:50.864Z,56.00
2023-03-25T17:31:33.277Z,55.96
2023-03-25T17:34:18.937Z,57.41
2023-03-25T17:36:50.253Z,57.34
2023-03-25T17:39:31.219Z,57.29
2023-03-25T17:42:03.391Z,57.16
2023-03-25T17:44:45.503Z,57.54
2023-03-25T17:47:17.887Z,57.04
2023-03-25T17:49:45.355Z,57.58
2023-03-25T17:52:13.057Z,57.69
2023-03-25T17:54:40.794Z,57.51
2023-03-25T17:57:18.361Z,57.48
2023-03-25T17:59:48.371Z,58.28
2023-03-25T18:02:17.829Z,59.09
2023-03-25T18:04:45.887Z,59.00
2023-03-25T18:07:13.650Z,58.81
2023-03-25T18:09:41.939Z,58.54
2023-03-25T18:12:11.815Z,59.45
2023-03-25T18:14:39.269Z,59.61
2023-03-25T18:17:07.383Z,60.21
2023-03-25T18:19:35.238Z,59.79
2023-03-25T18:22:13.831Z,60.42
2023-03-25T18:24:47.080Z,60.92
2023-03-25T18:27:14.788Z,60.92
2023-03-25T18:29:42.226Z,61.19
2023-03-25T18:32:09.867Z,61.56
2023-03-25T18:34:37.205Z,61.35
2023-03-25T18:37:04.828Z,61.42
2023-03-25T18:39:32.796Z,61.24
2023-03-25T18:42:00.453Z,61.15
2023-03-25T18:44:28.638Z,61.62
2023-03-25T18:46:56.529Z,61.53
2023-03-25T18:49:23.850Z,61.57
2023-03-25T18:51:51.640Z,62.00
2023-03-25T18:54:19.133Z,61.77
2023-03-25T18:56:46.808Z,62.29
2023-03-25T18:59:21.383Z,62.44
2023-03-25T19:01:49.126Z,62.60
2023-03-25T19:04:16.882Z,62.70
2023-03-25T19:06:44.647Z,62.70
2023-03-25T19:09:19.540Z,63.22
2023-03-25T19:11:48.241Z,63.25
2023-03-25T19:14:15.558Z,62.87
2023-03-25T19:16:57.259Z,62.87
2023-03-25T19:19:31.036Z,63.17
2023-03-25T19:21:58.777Z,63.03
2023-03-25T19:24:26.159Z,63.69
2023-03-25T19:26:53.736Z,63.14
2023-03-25T19:29:21.079Z,62.98
2023-03-25T19:31:48.709Z,63.08
2023-03-25T19:34:16.784Z,63.03
2023-03-25T19:36:46.827Z,63.26
2023-03-25T19:39:14.132Z,63.47
2023-03-25T19:41:42.981Z,63.37
2023-03-25T19:44:10.569Z,63.51
2023-03-25T19:46:38.241Z,63.67
2023-03-25T19:49:05.875Z,63.57
2023-03-25T19:51:33.442Z,63.78
2023-03-25T19:54:00.870Z,63.87
2023-03-25T19:56:28.496Z,64.37
2023-03-25T19:58:55.866Z,64.11
2023-03-25T20:01:23.432Z,64.87
2023-03-25T20:03:51.462Z,64.28
2023-03-25T20:06:19.222Z,64.53
2023-03-25T20:08:46.710Z,64.45
2023-03-25T20:11:15.377Z,64.40
2023-03-25T20:13:42.715Z,64.58
2023-03-25T20:16:11.055Z,65.47
2023-03-25T20:18:41.422Z,65.56
2023-03-25T20:21:09.932Z,65.60
2023-03-25T20:23:37.422Z,65.65
2023-03-25T20:26:06.377Z,66.05
2023-03-25T20:28:34.028Z,65.26
2023-03-25T20:31:01.984Z,64.95
2023-03-25T20:33:29.764Z,65.22
2023-03-25T20:35:57.703Z,63.37
2023-03-25T20:38:25.103Z,63.46
2023-03-25T20:40:57.005Z,62.47
2023-03-25T20:43:24.510Z,62.41
2023-03-25T20:45:56.592Z,62.50
2023-03-25T20:48:25.686Z,62.54
2023-03-25T20:51:10.352Z,62.68
2023-03-25T20:53:38.096Z,62.58
2023-03-25T20:56:06.556Z,62.91
2023-03-25T20:58:34.170Z,62.48
2023-03-25T21:01:03.054Z,62.49
2023-03-25T21:03:30.926Z,62.18
2023-03-25T21:06:07.403Z,62.70
2023-03-25T21:08:41.384Z,63.27
2023-03-25T21:11:09.301Z,63.94
2023-03-25T21:13:36.693Z,65.08
2023-03-25T21:16:05.402Z,65.98
2023-03-25T21:18:33.590Z,66.23
2023-03-25T21:21:03.741Z,68.39
2023-03-25T21:23:32.108Z,73.39
2023-03-25T21:26:09.552Z,76.01
2023-03-25T21:28:38.692Z,71.50
2023-03-25T21:31:22.047Z,73.70
2023-03-25T21:33:53.015Z,76.25
2023-03-25T21:36:27.341Z,75.92
2023-03-25T21:39:01.563Z,75.14
2023-03-25T21:41:30.357Z,75.70
2023-03-25T21:43:57.779Z,76.22
2023-03-25T21:46:27.612Z,76.49
2023-03-25T21:48:58.668Z,75.94
2023-03-25T21:51:30.745Z,75.62
2023-03-25T21:54:00.477Z,75.17
2023-03-25T21:56:31.497Z,74.48
2023-03-25T21:58:58.993Z,74.54
2023-03-25T22:01:30.260Z,73.92
2023-03-25T22:04:00.189Z,74.26
2023-03-25T22:06:31.904Z,73.67
2023-03-25T22:08:59.479Z,75.01
2023-03-25T22:11:31.738Z,75.42
2023-03-25T22:13:59.808Z,74.63
2023-03-25T22:16:27.731Z,75.26
2023-03-25T22:18:55.065Z,74.12
2023-03-25T22:21:29.698Z,74.29
2023-03-25T22:24:01.502Z,73.89
2023-03-25T22:26:31.898Z,74.30
2023-03-25T22:29:03.901Z,73.99
2023-03-25T22:31:39.716Z,74.37
2023-03-25T22:34:16.178Z,75.41
2023-03-25T22:36:51.211Z,76.04
2023-03-25T22:39:20.658Z,75.99
2023-03-25T22:41:48.401Z,76.07
2023-03-25T22:44:17.795Z,76.01
2023-03-25T22:46:48.071Z,75.55
2023-03-25T22:49:16.731Z,74.57
2023-03-25T22:51:44.522Z,74.00
2023-03-25T22:54:11.983Z,74.99
2023-03-25T22:56:43.821Z,75.39
2023-03-25T22:59:13.593Z,74.48
2023-03-25T23:01:42.890Z,74.16
2023-03-25T23:04:10.461Z,73.89
2023-03-25T23:06:38.256Z,73.27
2023-03-25T23:09:08.668Z,73.98
2023-03-25T23:11:38.157Z,74.35
2023-03-25T23:14:10.694Z,74.23
2023-03-25T23:16:39.230Z,73.96
2023-03-25T23:19:09.463Z,74.00
2023-03-25T23:21:38.397Z,74.17
2023-03-25T23:24:06.418Z,74.44
2023-03-25T23:26:40.259Z,74.70
2023-03-25T23:29:11.750Z,74.24
2023-03-25T23:31:43.405Z,73.53
2023-03-25T23:34:16.208Z,74.71
2023-03-25T23:36:46.241Z,74.96
2023-03-25T23:39:22.267Z,74.35
2023-03-25T23:41:51.508Z,73.98
2023-03-25T23:44:19.040Z,74.91
2023-03-25T23:46:51.303Z,74.31
2023-03-25T23:49:20.304Z,74.76
2023-03-25T23:51:51.165Z,74.06
2023-03-25T23:54:18.620Z,75.26
2023-03-25T23:56:46.327Z,75.21
2023-03-25T23:59:13.726Z,75.40
